WetterOnline ( https://www.wetteronline.de )

Wetter aktuell Saarlouis

Aktuelles Wetter: Berus (367m)

6-stündlich | Neueste Meldungen
Ortszeit Temperatur Wetter
Mo, 17.06. 14:00 18.5° C bewölkt
Mo, 17.06. 8:00 14.0° C bedeckt
Mo, 17.06. 2:00 13.9° C bedeckt
So, 16.06. 20:00 15.5° C wolkig
So, 16.06. 14:00 16.8° C leichter Regen
So, 16.06. 8:00 12.0° C wolkig
So, 16.06. 2:00 11.9° C bedeckt
Sa, 15.06. 20:00 15.7° C bewölkt
Ortszeit Temperatur Wetter
Mo, 17.06. 19:00 18.3° C bedeckt
Mo, 17.06. 18:30 18.3° C wolkig
Mo, 17.06. 18:20 18.3° C wolkig
Mo, 17.06. 18:10 18.2° C leichter Regen
Mo, 17.06. 18:00 16.9° C leichter Regen
Mo, 17.06. 17:50 16.9° C leichter Regen
Mo, 17.06. 17:30 18.3° C bewölkt
Mo, 17.06. 17:00 19.6° C bewölkt
Mo, 17.06. 16:30 20.3° C bewölkt
Mo, 17.06. 16:00 19.8° C wolkig
Ortszeit Relative Feuchte Sichtweite
Mo, 17.06. 14:00 89% 55 km
Mo, 17.06. 8:00 97% 30 km
Mo, 17.06. 2:00 97% 30 km
So, 16.06. 20:00 78% >70 km
So, 16.06. 14:00 65% 60 km
So, 16.06. 8:00 86% 50 km
So, 16.06. 2:00 91% 45 km
Sa, 15.06. 20:00 57% >70 km
Ortszeit Relative Feuchte Sichtweite
Mo, 17.06. 19:00 89% 50 km
Mo, 17.06. 18:30 88% 65 km
Mo, 17.06. 18:20 88% -
Mo, 17.06. 18:10 93% -
Mo, 17.06. 18:00 94% 20 km
Mo, 17.06. 17:50 94% -
Mo, 17.06. 17:30 81% >70 km
Mo, 17.06. 17:00 77% 50 km
Mo, 17.06. 16:30 77% >70 km
Mo, 17.06. 16:00 77% >70 km
Ortszeit Niederschlagsmenge Niederschlagsart
Mo, 17.06. 14:00 2 l/m2 in 6 Std. Regen
Mo, 17.06. 8:00 5 l/m2 in 12 Std. Regen
Mo, 17.06. 2:00 0.1 l/m2 in 6 Std. Regen
So, 16.06. 20:00 0.1 l/m2 in 12 Std. Regen
So, 16.06. 14:00 0.1 l/m2 in 6 Std. Regen
So, 16.06. 8:00 1 l/m2 in 12 Std. Regen
So, 16.06. 2:00 0.5 l/m2 in 6 Std. Regen
Sa, 15.06. 20:00 0.1 l/m2 in 12 Std. -
Ortszeit Niederschlagsmenge Niederschlagsart
Mo, 17.06. 19:00 0.1 l/m2 in 1 Std. Regen
Mo, 17.06. 18:30 0.1 l/m2 in 30 Min Schneeregen
Mo, 17.06. 18:20 keine Meldung -
Mo, 17.06. 18:10 keine Meldung -
Mo, 17.06. 18:00 3.5 l/m2 in 1 Std. Regen
Mo, 17.06. 17:50 keine Meldung -
Mo, 17.06. 17:30 0.1 l/m2 in 30 Min -
Mo, 17.06. 17:00 0.1 l/m2 in 1 Std. Regen
Mo, 17.06. 16:30 0.1 l/m2 in 30 Min -
Mo, 17.06. 16:00 <0.05 l/m2 in 1 Std. -
Ortszeit Stärke Spitze Richtung
km/h Bft. km/h Grad Sektor
Mo, 17.06. 14:00 11 2 37 220° SW
Mo, 17.06. 8:00 13 3 28 240° SW
Mo, 17.06. 2:00 11 2 29 220° SW
So, 16.06. 20:00 18 3 50 240° SW
So, 16.06. 14:00 22 4 36 220° SW
So, 16.06. 8:00 22 4 33 230° SW
So, 16.06. 2:00 11 2 36 250° W
Sa, 15.06. 20:00 14 3 50 240° SW
Ortszeit Stärke Spitze Richtung
km/h Bft. km/h Grad Sektor
Mo, 17.06. 19:00 4 1 11 240° SW
Mo, 17.06. 18:30 4 1 11 300° NW
Mo, 17.06. 18:20 4 1 - 300° NW
Mo, 17.06. 18:10 6 1 - 280° W
Mo, 17.06. 18:00 7 2 28 350° N
Mo, 17.06. 17:50 7 2 - 350° N
Mo, 17.06. 17:30 7 2 29 340° N
Mo, 17.06. 17:00 15 3 30 230° SW
Mo, 17.06. 16:30 17 3 30 230° SW
Mo, 17.06. 16:00 18 3 32 240° SW
Ortszeit Untergrenze Bedeckung Gattung
total tief tief mittel hoch
Mo, 17.06. 14:00 540 m 8/8 7/8 - - -
Mo, 17.06. 8:00 180 m 8/8 8/8 - - -
Mo, 17.06. 2:00 210 m 8/8 8/8 - - -
So, 16.06. 20:00 2100 m 6/8 6/8 - - -
So, 16.06. 14:00 1800 m 8/8 8/8 - - -
So, 16.06. 8:00 420 m 8/8 1/8 - - -
So, 16.06. 2:00 1020 m 8/8 8/8 - - -
Sa, 15.06. 20:00 2100 m 8/8 5/8 - - -
Ortszeit Bedeckungsgrad in Achtel und Wolkenuntergrenze
Mo, 17.06. 19:00 1(3900m) 8(4800m)
Mo, 17.06. 18:30 1(1020m) 5(3900m) 7(5100m)
Mo, 17.06. 18:20 1(1020m) 5(3900m) 7(5100m)
Mo, 17.06. 18:10 6
Mo, 17.06. 18:00 5(510m) 7(1800m) 8(2700m)
Mo, 17.06. 17:50 5(510m) 7(1800m) 8(2700m)
Mo, 17.06. 17:30 2(480m) 7(1020m) 7(3300m)
Mo, 17.06. 17:00 5(780m) 7(1410m) 7(4500m)
Mo, 17.06. 16:30 2(720m) 6(1500m) 7(7800m)
Mo, 17.06. 16:00 2(960m) 5(4500m) 7(6900m)
Ortszeit Luftdruck NN (hPa) Tendenz (hPa in 3 Std.)
Mo, 17.06. 14:00 1014 + 0,4
Mo, 17.06. 8:00 1013 + 1,0
Mo, 17.06. 2:00 1011 + 0,3
So, 16.06. 20:00 1010 - 0,1
So, 16.06. 14:00 1009 - 0,4
So, 16.06. 8:00 1011 + 0,2
So, 16.06. 2:00 1011 + 0,1
Sa, 15.06. 20:00 1009 0,0
Ortszeit Luftdruck NN (hPa) Tendenz (hPa in 3 Std.)
Mo, 17.06. 19:00 1014 0,0
Mo, 17.06. 18:30 1014 - 0,1
Mo, 17.06. 18:20 1014 keine Meldung
Mo, 17.06. 18:10 1014 keine Meldung
Mo, 17.06. 18:00 1014 0,0
Mo, 17.06. 17:50 1014 keine Meldung
Mo, 17.06. 17:30 1014 - 0,1
Mo, 17.06. 17:00 1013 - 0,3
Mo, 17.06. 16:30 1013 - 0,5
Mo, 17.06. 16:00 1013 - 0,2
Ortszeit Schneehöhe (cm)
Mo, 17.06. 14:00 0
Mo, 17.06. 8:00 0
Mo, 17.06. 2:00 0
So, 16.06. 20:00 0
So, 16.06. 14:00 0
So, 16.06. 8:00 0
So, 16.06. 2:00 0
Sa, 15.06. 20:00 0
Ortszeit Schneehöhe (cm)
Mo, 17.06. 19:00 0
Mo, 17.06. 18:30 0
Mo, 17.06. 18:20 0
Mo, 17.06. 18:10 -
Mo, 17.06. 18:00 0
Mo, 17.06. 17:50 0
Mo, 17.06. 17:30 0
Mo, 17.06. 17:00 0
Mo, 17.06. 16:30 0
Mo, 17.06. 16:00 0
Link zu dieser Seite / Seite empfehlen

Das Wetter in ...